Salt Lake City, UT

7:13 PM MDT on August 31, 2016 (GMT -0600)
ARCADIA HEIGHTS | | Change Station
Active Advisory: Fire Weather Warning

Elev 5325 ft 40.73 °N, 111.80 °W | Updated 13 minutes ago

Mostly Cloudy
Mostly Cloudy
81.0 °F
Feels Like 80 °F
N
0.0
Wind Variable Wind from ESE

Today
High -- | Low -- °F
--% Chance of Precip.
Yesterday
High -- | Low -- °F
Precip. -- in
Pressure 29.76 in
Visibility 10.0 miles
Clouds Few 11000 ft
Mostly Cloudy 15000 ft
Heat Index 80 °F
Dew Point 43 °F
Humidity 26%
Rainfall 0.00 in
Snow Depth Not available.
6:53 AM 7:59 PM
Waning Crescent, 0% visible
METAR KSLC 010054Z 03007KT 10SM FEW110 BKN150 34/01 A2995 RMK AO2 SLP078 T03390011 $
Pressure 29.76 in
Visibility 10.0 miles
Clouds Few 11000 ft
Mostly Cloudy 15000 ft
Heat Index 80 °F
Dew Point 43 °F
Humidity 26%
Rainfall 0.00 in
Snow Depth Not available.
6:53 AM 7:59 PM
Waning Crescent, 0% visible
METAR KSLC 010054Z 03007KT 10SM FEW110 BKN150 34/01 A2995 RMK AO2 SLP078 T03390011 $

10-Day Weather Forecast

Almanac

Astronomy

Aug. 31, 2016 Rise Set
Actual Time
Civil Twilight
Nautical Twilight
Astronomical Twilight
Moon
Length of Visible Light
Length of Day
Tomorrow will be .
, % of the Moon is Illuminated

Today's Extremes

State Highs State Lows

Community

WunderPhotos

Upload Photos

1,936,257 photos uploaded!

WunderBlog® & News

Nearby

Air Quality

  Air Quality AQ Index Pollutant
Not available.

Snow Depth

Station Depth Elevation

Earthquake Activity

City Distance Mag. Time & Date
Minimum magnitude displayed is 2.5.

Coastal Water Temperatures

Place Temperature

Stations

Nearby Weather Stations

Station Location Temp. Windchill Dew Point Humidity Wind Precip. Elev Updated Type
                   

Watches & Warnings

Fire Weather Warning
Issued: 12:09 PM MDT Aug. 31, 2016 – National Weather Service

... Red flag warning remains in effect from 6 am Thursday to 10 PM
MDT Friday for thunderstorms after a prolonged dry period for
fire weather zones 479 and 480...

* affected area... fire weather zone 479 Wasatch mountains and
fire weather zone 480 Uinta Mountains.

* Outflow winds... greater than 40 mph possible.

* Relative humidity... 13 to 15 percent below 7000 feet. Above 15
percent elevations above 7000 feet.

* Thunderstorms... scattered thunderstorms with insignificant
rainfall and fast storm motions will develop on Thursday...
then trend more widely scattered in nature on Friday.

* Impacts... the combination of thunderstorms with insignificant
rainfall after a prolonged dry period and gusty outflow winds
may create to the potential for new fire starts and rapid fire
growth.

Precautionary/preparedness actions...

A red flag warning means that critical fire weather conditions
are forecast to occur with high confidence. A combination of
strong microburst winds... and warm temperatures can contribute to
extreme fire behavior.